sensor_id;sensor_type;location;lat;lon;timestamp;P1;durP1;ratioP1;P2;durP2;ratioP2
8411;SDS011;4243;49.296;11.348;2022-07-01T00:01:52;114.93;;;3.40;;
8411;SDS011;4243;49.296;11.348;2022-07-01T00:04:21;116.37;;;4.00;;
8411;SDS011;4243;49.296;11.348;2022-07-01T00:07:13;115.97;;;3.20;;
8411;SDS011;4243;49.296;11.348;2022-07-01T00:09:40;113.63;;;3.67;;
8411;SDS011;4243;49.296;11.348;2022-07-01T00:12:08;118.60;;;4.17;;
8411;SDS011;4243;49.296;11.348;2022-07-01T00:14:36;116.80;;;4.10;;
8411;SDS011;4243;49.296;11.348;2022-07-01T00:17:03;115.27;;;3.80;;
8411;SDS011;4243;49.296;11.348;2022-07-01T00:19:31;116.90;;;4.10;;
8411;SDS011;4243;49.296;11.348;2022-07-01T00:21:58;116.40;;;4.10;;
8411;SDS011;4243;49.296;11.348;2022-07-01T00:24:27;117.00;;;4.40;;
8411;SDS011;4243;49.296;11.348;2022-07-01T00:26:54;116.10;;;3.53;;
8411;SDS011;4243;49.296;11.348;2022-07-01T00:29:22;116.43;;;4.50;;
8411;SDS011;4243;49.296;11.348;2022-07-01T00:31:50;116.30;;;4.40;;
8411;SDS011;4243;49.296;11.348;2022-07-01T00:34:17;116.47;;;4.30;;
8411;SDS011;4243;49.296;11.348;2022-07-01T00:36:45;116.67;;;4.37;;
8411;SDS011;4243;49.296;11.348;2022-07-01T00:39:12;117.17;;;4.23;;
8411;SDS011;4243;49.296;11.348;2022-07-01T00:41:40;116.20;;;4.23;;
8411;SDS011;4243;49.296;11.348;2022-07-01T00:44:17;116.27;;;4.10;;
8411;SDS011;4243;49.296;11.348;2022-07-01T00:46:49;116.37;;;3.97;;
8411;SDS011;4243;49.296;11.348;2022-07-01T00:49:17;115.87;;;4.70;;
8411;SDS011;4243;49.296;11.348;2022-07-01T00:51:46;117.07;;;4.33;;
8411;SDS011;4243;49.296;11.348;2022-07-01T00:54:14;115.00;;;4.80;;
8411;SDS011;4243;49.296;11.348;2022-07-01T00:56:42;115.80;;;3.90;;
8411;SDS011;4243;49.296;11.348;2022-07-01T00:59:09;116.70;;;4.30;;
8411;SDS011;4243;49.296;11.348;2022-07-01T01:01:37;115.90;;;4.20;;
8411;SDS011;4243;49.296;11.348;2022-07-01T01:04:04;116.30;;;4.40;;
8411;SDS011;4243;49.296;11.348;2022-07-01T01:06:33;116.33;;;4.93;;
8411;SDS011;4243;49.296;11.348;2022-07-01T01:09:00;117.07;;;3.97;;
8411;SDS011;4243;49.296;11.348;2022-07-01T01:11:29;117.47;;;4.00;;
8411;SDS011;4243;49.296;11.348;2022-07-01T01:13:58;116.27;;;3.27;;
8411;SDS011;4243;49.296;11.348;2022-07-01T01:16:25;115.63;;;3.33;;
8411;SDS011;4243;49.296;11.348;2022-07-01T01:18:53;116.13;;;3.17;;
8411;SDS011;4243;49.296;11.348;2022-07-01T01:21:22;116.60;;;3.07;;
8411;SDS011;4243;49.296;11.348;2022-07-01T01:23:49;116.90;;;3.17;;
8411;SDS011;4243;49.296;11.348;2022-07-01T01:26:18;116.97;;;3.60;;
8411;SDS011;4243;49.296;11.348;2022-07-01T01:28:48;116.73;;;3.57;;
8411;SDS011;4243;49.296;11.348;2022-07-01T01:31:16;116.57;;;3.30;;
8411;SDS011;4243;49.296;11.348;2022-07-01T01:33:52;116.80;;;3.33;;
8411;SDS011;4243;49.296;11.348;2022-07-01T01:36:20;116.90;;;3.40;;
8411;SDS011;4243;49.296;11.348;2022-07-01T01:38:47;116.37;;;3.07;;
8411;SDS011;4243;49.296;11.348;2022-07-01T01:41:15;115.77;;;3.20;;
8411;SDS011;4243;49.296;11.348;2022-07-01T01:43:42;117.37;;;3.80;;
8411;SDS011;4243;49.296;11.348;2022-07-01T01:46:10;117.03;;;3.10;;
8411;SDS011;4243;49.296;11.348;2022-07-01T01:48:38;116.93;;;3.20;;
8411;SDS011;4243;49.296;11.348;2022-07-01T01:51:05;117.37;;;3.60;;
8411;SDS011;4243;49.296;11.348;2022-07-01T01:53:33;115.57;;;3.30;;
8411;SDS011;4243;49.296;11.348;2022-07-01T01:56:00;120.87;;;3.40;;
8411;SDS011;4243;49.296;11.348;2022-07-01T01:58:28;116.97;;;2.90;;
8411;SDS011;4243;49.296;11.348;2022-07-01T02:00:55;117.67;;;3.00;;
8411;SDS011;4243;49.296;11.348;2022-07-01T02:03:23;116.60;;;3.00;;
8411;SDS011;4243;49.296;11.348;2022-07-01T02:05:51;117.23;;;3.10;;
8411;SDS011;4243;49.296;11.348;2022-07-01T02:08:18;117.70;;;3.20;;
8411;SDS011;4243;49.296;11.348;2022-07-01T02:10:46;121.07;;;3.40;;
8411;SDS011;4243;49.296;11.348;2022-07-01T02:13:18;116.70;;;2.67;;
8411;SDS011;4243;49.296;11.348;2022-07-01T02:15:45;116.77;;;3.17;;
8411;SDS011;4243;49.296;11.348;2022-07-01T02:18:15;117.40;;;3.27;;
8411;SDS011;4243;49.296;11.348;2022-07-01T02:20:43;117.30;;;3.40;;
8411;SDS011;4243;49.296;11.348;2022-07-01T02:23:10;116.20;;;3.47;;
8411;SDS011;4243;49.296;11.348;2022-07-01T02:25:38;117.27;;;3.83;;
8411;SDS011;4243;49.296;11.348;2022-07-01T02:28:05;116.07;;;3.30;;
8411;SDS011;4243;49.296;11.348;2022-07-01T02:30:33;117.93;;;3.50;;
8411;SDS011;4243;49.296;11.348;2022-07-01T02:33:03;117.40;;;3.50;;
8411;SDS011;4243;49.296;11.348;2022-07-01T02:35:32;117.50;;;3.63;;
8411;SDS011;4243;49.296;11.348;2022-07-01T02:38:02;116.50;;;3.53;;
8411;SDS011;4243;49.296;11.348;2022-07-01T02:40:31;118.10;;;4.00;;
8411;SDS011;4243;49.296;11.348;2022-07-01T02:43:00;118.40;;;4.20;;
8411;SDS011;4243;49.296;11.348;2022-07-01T02:45:27;118.17;;;4.50;;
8411;SDS011;4243;49.296;11.348;2022-07-01T02:47:55;118.20;;;3.97;;
8411;SDS011;4243;49.296;11.348;2022-07-01T02:50:23;118.27;;;4.30;;
8411;SDS011;4243;49.296;11.348;2022-07-01T02:52:56;118.67;;;4.57;;
8411;SDS011;4243;49.296;11.348;2022-07-01T02:55:23;118.33;;;4.53;;
8411;SDS011;4243;49.296;11.348;2022-07-01T02:57:51;118.87;;;4.80;;
8411;SDS011;4243;49.296;11.348;2022-07-01T03:00:19;118.13;;;4.37;;
8411;SDS011;4243;49.296;11.348;2022-07-01T03:02:48;117.90;;;4.63;;
8411;SDS011;4243;49.296;11.348;2022-07-01T03:05:16;118.60;;;4.30;;
8411;SDS011;4243;49.296;11.348;2022-07-01T03:07:44;118.20;;;4.53;;
8411;SDS011;4243;49.296;11.348;2022-07-01T03:10:11;118.33;;;4.07;;
8411;SDS011;4243;49.296;11.348;2022-07-01T03:12:39;118.57;;;4.37;;
8411;SDS011;4243;49.296;11.348;2022-07-01T03:15:07;118.00;;;4.30;;
8411;SDS011;4243;49.296;11.348;2022-07-01T03:17:43;118.23;;;4.10;;
8411;SDS011;4243;49.296;11.348;2022-07-01T03:20:14;118.47;;;4.37;;
8411;SDS011;4243;49.296;11.348;2022-07-01T03:22:43;117.77;;;4.20;;
8411;SDS011;4243;49.296;11.348;2022-07-01T03:25:12;118.97;;;4.40;;
8411;SDS011;4243;49.296;11.348;2022-07-01T03:27:40;118.40;;;4.37;;
8411;SDS011;4243;49.296;11.348;2022-07-01T03:30:12;118.47;;;4.37;;
8411;SDS011;4243;49.296;11.348;2022-07-01T03:32:41;118.77;;;5.00;;
8411;SDS011;4243;49.296;11.348;2022-07-01T03:35:09;119.83;;;5.37;;
8411;SDS011;4243;49.296;11.348;2022-07-01T03:37:55;118.10;;;4.83;;
8411;SDS011;4243;49.296;11.348;2022-07-01T03:43:28;118.53;;;4.77;;
8411;SDS011;4243;49.296;11.348;2022-07-01T03:45:55;118.53;;;5.33;;
8411;SDS011;4243;49.296;11.348;2022-07-01T03:48:24;118.67;;;4.97;;
8411;SDS011;4243;49.296;11.348;2022-07-01T03:50:52;118.33;;;4.93;;
8411;SDS011;4243;49.296;11.348;2022-07-01T03:53:20;119.40;;;5.40;;
8411;SDS011;4243;49.296;11.348;2022-07-01T03:56:06;118.47;;;5.87;;
8411;SDS011;4243;49.296;11.348;2022-07-01T03:58:33;118.77;;;5.07;;
8411;SDS011;4243;49.296;11.348;2022-07-01T04:01:01;119.30;;;5.60;;
8411;SDS011;4243;49.296;11.348;2022-07-01T04:03:28;118.37;;;5.27;;
8411;SDS011;4243;49.296;11.348;2022-07-01T04:05:56;119.47;;;5.27;;
8411;SDS011;4243;49.296;11.348;2022-07-01T04:08:24;118.70;;;5.37;;
8411;SDS011;4243;49.296;11.348;2022-07-01T04:10:52;119.50;;;5.97;;
8411;SDS011;4243;49.296;11.348;2022-07-01T04:13:21;118.73;;;6.00;;
8411;SDS011;4243;49.296;11.348;2022-07-01T04:15:58;119.43;;;6.37;;
8411;SDS011;4243;49.296;11.348;2022-07-01T04:18:27;119.40;;;6.37;;
8411;SDS011;4243;49.296;11.348;2022-07-01T04:20:55;119.23;;;7.10;;
8411;SDS011;4243;49.296;11.348;2022-07-01T04:23:42;119.80;;;6.83;;
8411;SDS011;4243;49.296;11.348;2022-07-01T04:26:10;120.20;;;7.07;;
8411;SDS011;4243;49.296;11.348;2022-07-01T04:28:57;120.37;;;6.80;;
8411;SDS011;4243;49.296;11.348;2022-07-01T04:31:25;120.00;;;7.40;;
8411;SDS011;4243;49.296;11.348;2022-07-01T04:33:52;119.97;;;7.00;;
8411;SDS011;4243;49.296;11.348;2022-07-01T04:36:20;120.40;;;7.30;;
8411;SDS011;4243;49.296;11.348;2022-07-01T04:38:48;119.37;;;6.90;;
8411;SDS011;4243;49.296;11.348;2022-07-01T04:41:16;120.87;;;7.70;;
8411;SDS011;4243;49.296;11.348;2022-07-01T04:44:02;120.17;;;6.97;;
8411;SDS011;4243;49.296;11.348;2022-07-01T04:46:30;120.47;;;6.87;;
8411;SDS011;4243;49.296;11.348;2022-07-01T04:48:58;120.77;;;7.73;;
8411;SDS011;4243;49.296;11.348;2022-07-01T04:51:26;120.20;;;6.80;;
8411;SDS011;4243;49.296;11.348;2022-07-01T04:53:54;119.80;;;6.10;;
8411;SDS011;4243;49.296;11.348;2022-07-01T04:56:21;120.00;;;6.90;;
8411;SDS011;4243;49.296;11.348;2022-07-01T04:58:49;119.60;;;6.47;;
8411;SDS011;4243;49.296;11.348;2022-07-01T05:01:17;120.07;;;7.03;;
8411;SDS011;4243;49.296;11.348;2022-07-01T05:03:44;118.90;;;6.90;;
8411;SDS011;4243;49.296;11.348;2022-07-01T05:06:12;119.40;;;6.87;;
8411;SDS011;4243;49.296;11.348;2022-07-01T05:08:39;119.77;;;6.50;;
8411;SDS011;4243;49.296;11.348;2022-07-01T05:11:07;119.80;;;6.00;;
8411;SDS011;4243;49.296;11.348;2022-07-01T05:13:34;120.10;;;6.63;;
8411;SDS011;4243;49.296;11.348;2022-07-01T05:16:02;119.37;;;5.53;;
8411;SDS011;4243;49.296;11.348;2022-07-01T05:18:31;119.27;;;5.63;;
8411;SDS011;4243;49.296;11.348;2022-07-01T05:21:17;119.20;;;5.40;;
8411;SDS011;4243;49.296;11.348;2022-07-01T05:24:03;119.20;;;5.43;;
8411;SDS011;4243;49.296;11.348;2022-07-01T05:26:31;119.43;;;5.50;;
8411;SDS011;4243;49.296;11.348;2022-07-01T05:28:59;119.40;;;5.57;;
8411;SDS011;4243;49.296;11.348;2022-07-01T05:31:26;118.90;;;4.50;;
8411;SDS011;4243;49.296;11.348;2022-07-01T05:33:54;118.57;;;4.20;;
8411;SDS011;4243;49.296;11.348;2022-07-01T05:36:29;118.37;;;4.10;;
8411;SDS011;4243;49.296;11.348;2022-07-01T05:38:56;118.30;;;3.90;;
8411;SDS011;4243;49.296;11.348;2022-07-01T05:41:24;118.57;;;3.37;;
8411;SDS011;4243;49.296;11.348;2022-07-01T05:43:52;118.97;;;3.50;;
8411;SDS011;4243;49.296;11.348;2022-07-01T05:46:20;118.60;;;3.67;;
8411;SDS011;4243;49.296;11.348;2022-07-01T05:48:47;118.77;;;3.90;;
8411;SDS011;4243;49.296;11.348;2022-07-01T05:51:14;119.17;;;4.20;;
8411;SDS011;4243;49.296;11.348;2022-07-01T05:53:42;118.47;;;4.30;;
8411;SDS011;4243;49.296;11.348;2022-07-01T05:56:09;119.20;;;4.00;;
8411;SDS011;4243;49.296;11.348;2022-07-01T05:58:37;118.60;;;3.87;;
8411;SDS011;4243;49.296;11.348;2022-07-01T06:01:05;119.30;;;4.00;;
8411;SDS011;4243;49.296;11.348;2022-07-01T06:03:35;118.47;;;3.40;;
8411;SDS011;4243;49.296;11.348;2022-07-01T06:06:03;118.70;;;3.80;;
8411;SDS011;4243;49.296;11.348;2022-07-01T06:08:32;118.80;;;3.80;;
8411;SDS011;4243;49.296;11.348;2022-07-01T06:10:59;118.97;;;3.77;;
8411;SDS011;4243;49.296;11.348;2022-07-01T06:13:27;118.60;;;3.37;;
8411;SDS011;4243;49.296;11.348;2022-07-01T06:15:55;118.90;;;4.00;;
8411;SDS011;4243;49.296;11.348;2022-07-01T06:18:26;119.27;;;3.43;;
8411;SDS011;4243;49.296;11.348;2022-07-01T06:20:53;119.17;;;3.47;;
8411;SDS011;4243;49.296;11.348;2022-07-01T06:23:21;118.97;;;3.47;;
8411;SDS011;4243;49.296;11.348;2022-07-01T06:25:49;118.10;;;3.40;;
8411;SDS011;4243;49.296;11.348;2022-07-01T06:28:17;119.10;;;3.43;;
8411;SDS011;4243;49.296;11.348;2022-07-01T06:30:44;119.20;;;3.33;;
8411;SDS011;4243;49.296;11.348;2022-07-01T06:33:12;118.50;;;3.30;;
8411;SDS011;4243;49.296;11.348;2022-07-01T06:35:40;118.60;;;2.97;;
8411;SDS011;4243;49.296;11.348;2022-07-01T06:38:08;118.87;;;3.13;;
8411;SDS011;4243;49.296;11.348;2022-07-01T06:40:35;118.30;;;3.37;;
8411;SDS011;4243;49.296;11.348;2022-07-01T06:43:03;118.37;;;3.10;;
8411;SDS011;4243;49.296;11.348;2022-07-01T06:45:30;118.83;;;3.30;;
8411;SDS011;4243;49.296;11.348;2022-07-01T06:47:58;118.70;;;3.03;;
8411;SDS011;4243;49.296;11.348;2022-07-01T06:50:25;118.50;;;2.97;;
8411;SDS011;4243;49.296;11.348;2022-07-01T06:52:53;118.70;;;3.00;;
8411;SDS011;4243;49.296;11.348;2022-07-01T06:55:20;118.23;;;2.73;;
8411;SDS011;4243;49.296;11.348;2022-07-01T06:57:48;118.50;;;3.10;;
8411;SDS011;4243;49.296;11.348;2022-07-01T07:00:16;118.30;;;3.03;;
8411;SDS011;4243;49.296;11.348;2022-07-01T07:02:43;118.60;;;2.97;;
8411;SDS011;4243;49.296;11.348;2022-07-01T07:05:11;119.07;;;3.50;;
8411;SDS011;4243;49.296;11.348;2022-07-01T07:07:38;118.70;;;3.17;;
8411;SDS011;4243;49.296;11.348;2022-07-01T07:10:06;118.30;;;2.90;;
8411;SDS011;4243;49.296;11.348;2022-07-01T07:12:34;118.20;;;2.80;;
8411;SDS011;4243;49.296;11.348;2022-07-01T07:15:02;118.77;;;3.00;;
8411;SDS011;4243;49.296;11.348;2022-07-01T07:17:30;117.77;;;2.83;;
8411;SDS011;4243;49.296;11.348;2022-07-01T07:19:57;122.07;;;3.10;;
8411;SDS011;4243;49.296;11.348;2022-07-01T07:22:25;118.77;;;3.03;;
8411;SDS011;4243;49.296;11.348;2022-07-01T07:24:53;118.67;;;2.93;;
8411;SDS011;4243;49.296;11.348;2022-07-01T07:27:22;118.40;;;2.90;;
8411;SDS011;4243;49.296;11.348;2022-07-01T07:29:49;118.50;;;2.90;;
8411;SDS011;4243;49.296;11.348;2022-07-01T07:32:16;119.17;;;3.20;;
8411;SDS011;4243;49.296;11.348;2022-07-01T07:34:44;118.53;;;3.20;;
8411;SDS011;4243;49.296;11.348;2022-07-01T07:37:12;118.17;;;3.00;;
8411;SDS011;4243;49.296;11.348;2022-07-01T07:39:39;118.30;;;3.20;;
8411;SDS011;4243;49.296;11.348;2022-07-01T07:42:07;118.30;;;2.80;;
8411;SDS011;4243;49.296;11.348;2022-07-01T07:44:34;118.07;;;3.00;;
8411;SDS011;4243;49.296;11.348;2022-07-01T07:47:02;118.93;;;2.97;;
8411;SDS011;4243;49.296;11.348;2022-07-01T07:49:29;119.10;;;2.83;;
8411;SDS011;4243;49.296;11.348;2022-07-01T07:51:57;120.03;;;2.90;;
8411;SDS011;4243;49.296;11.348;2022-07-01T07:54:24;118.57;;;2.80;;
8411;SDS011;4243;49.296;11.348;2022-07-01T07:56:53;118.67;;;2.87;;
8411;SDS011;4243;49.296;11.348;2022-07-01T07:59:20;119.00;;;2.83;;
8411;SDS011;4243;49.296;11.348;2022-07-01T08:03:32;119.10;;;2.80;;
8411;SDS011;4243;49.296;11.348;2022-07-01T08:06:01;118.73;;;2.90;;
8411;SDS011;4243;49.296;11.348;2022-07-01T08:08:30;119.00;;;3.00;;
8411;SDS011;4243;49.296;11.348;2022-07-01T08:10:58;118.17;;;2.73;;
8411;SDS011;4243;49.296;11.348;2022-07-01T08:13:25;118.87;;;2.80;;
8411;SDS011;4243;49.296;11.348;2022-07-01T08:15:54;118.70;;;2.83;;
8411;SDS011;4243;49.296;11.348;2022-07-01T08:18:22;118.40;;;3.07;;
8411;SDS011;4243;49.296;11.348;2022-07-01T08:20:50;118.53;;;2.80;;
8411;SDS011;4243;49.296;11.348;2022-07-01T08:23:20;118.90;;;2.70;;
8411;SDS011;4243;49.296;11.348;2022-07-01T08:25:49;118.67;;;2.80;;
8411;SDS011;4243;49.296;11.348;2022-07-01T08:28:17;118.00;;;2.80;;
8411;SDS011;4243;49.296;11.348;2022-07-01T08:30:45;117.90;;;2.70;;
8411;SDS011;4243;49.296;11.348;2022-07-01T08:33:12;118.10;;;2.60;;
8411;SDS011;4243;49.296;11.348;2022-07-01T08:35:40;118.20;;;2.70;;
8411;SDS011;4243;49.296;11.348;2022-07-01T08:38:08;118.23;;;2.67;;
8411;SDS011;4243;49.296;11.348;2022-07-01T08:40:35;118.10;;;2.70;;
8411;SDS011;4243;49.296;11.348;2022-07-01T08:43:04;118.70;;;2.70;;
8411;SDS011;4243;49.296;11.348;2022-07-01T08:45:33;118.13;;;2.67;;
8411;SDS011;4243;49.296;11.348;2022-07-01T08:48:04;118.50;;;2.77;;
8411;SDS011;4243;49.296;11.348;2022-07-01T08:50:36;118.20;;;2.63;;
8411;SDS011;4243;49.296;11.348;2022-07-01T08:53:08;118.03;;;2.77;;
8411;SDS011;4243;49.296;11.348;2022-07-01T08:55:38;117.50;;;2.60;;
8411;SDS011;4243;49.296;11.348;2022-07-01T08:58:26;117.00;;;2.50;;
8411;SDS011;4243;49.296;11.348;2022-07-01T09:01:14;116.73;;;2.60;;
8411;SDS011;4243;49.296;11.348;2022-07-01T09:03:43;116.90;;;2.43;;
8411;SDS011;4243;49.296;11.348;2022-07-01T09:06:17;116.63;;;2.40;;
8411;SDS011;4243;49.296;11.348;2022-07-01T09:08:53;119.27;;;2.80;;
8411;SDS011;4243;49.296;11.348;2022-07-01T09:11:23;117.13;;;2.50;;
8411;SDS011;4243;49.296;11.348;2022-07-01T09:14:04;117.50;;;2.50;;
8411;SDS011;4243;49.296;11.348;2022-07-01T09:16:45;117.30;;;2.50;;
8411;SDS011;4243;49.296;11.348;2022-07-01T09:19:27;116.90;;;2.60;;
8411;SDS011;4243;49.296;11.348;2022-07-01T09:22:02;117.70;;;2.60;;
8411;SDS011;4243;49.296;11.348;2022-07-01T09:24:35;117.17;;;2.50;;
8411;SDS011;4243;49.296;11.348;2022-07-01T09:27:14;117.57;;;2.47;;
8411;SDS011;4243;49.296;11.348;2022-07-01T09:29:49;117.30;;;2.50;;
8411;SDS011;4243;49.296;11.348;2022-07-01T09:32:22;116.80;;;2.50;;
8411;SDS011;4243;49.296;11.348;2022-07-01T09:34:54;117.43;;;2.50;;
8411;SDS011;4243;49.296;11.348;2022-07-01T09:37:26;117.00;;;2.53;;
8411;SDS011;4243;49.296;11.348;2022-07-01T09:39:59;117.90;;;2.70;;
8411;SDS011;4243;49.296;11.348;2022-07-01T09:42:32;117.00;;;2.67;;
8411;SDS011;4243;49.296;11.348;2022-07-01T09:45:15;117.33;;;2.73;;
8411;SDS011;4243;49.296;11.348;2022-07-01T09:47:47;117.27;;;2.50;;
8411;SDS011;4243;49.296;11.348;2022-07-01T09:50:19;116.90;;;2.50;;
8411;SDS011;4243;49.296;11.348;2022-07-01T09:52:51;117.47;;;2.60;;
8411;SDS011;4243;49.296;11.348;2022-07-01T09:55:22;117.27;;;2.60;;
8411;SDS011;4243;49.296;11.348;2022-07-01T09:57:54;116.90;;;2.50;;
8411;SDS011;4243;49.296;11.348;2022-07-01T10:00:26;117.07;;;2.40;;
8411;SDS011;4243;49.296;11.348;2022-07-01T10:03:00;118.57;;;2.63;;
8411;SDS011;4243;49.296;11.348;2022-07-01T10:05:37;116.73;;;2.57;;
8411;SDS011;4243;49.296;11.348;2022-07-01T10:08:57;116.90;;;2.70;;
8411;SDS011;4243;49.296;11.348;2022-07-01T10:12:06;116.27;;;2.73;;
8411;SDS011;4243;49.296;11.348;2022-07-01T10:15:04;116.17;;;2.37;;
8411;SDS011;4243;49.296;11.348;2022-07-01T10:17:42;116.80;;;2.50;;
8411;SDS011;4243;49.296;11.348;2022-07-01T10:22:50;116.00;;;2.37;;
8411;SDS011;4243;49.296;11.348;2022-07-01T10:25:31;115.90;;;2.57;;
8411;SDS011;4243;49.296;11.348;2022-07-01T10:28:11;117.40;;;2.80;;
8411;SDS011;4243;49.296;11.348;2022-07-01T10:36:17;115.70;;;2.50;;
8411;SDS011;4243;49.296;11.348;2022-07-01T10:47:46;116.67;;;2.77;;
8411;SDS011;4243;49.296;11.348;2022-07-01T10:50:14;116.07;;;2.77;;
8411;SDS011;4243;49.296;11.348;2022-07-01T10:52:59;116.57;;;2.90;;
8411;SDS011;4243;49.296;11.348;2022-07-01T10:55:37;116.70;;;2.73;;
8411;SDS011;4243;49.296;11.348;2022-07-01T10:58:11;117.10;;;3.07;;
8411;SDS011;4243;49.296;11.348;2022-07-01T11:00:43;116.87;;;3.10;;
8411;SDS011;4243;49.296;11.348;2022-07-01T11:03:19;116.67;;;2.73;;
8411;SDS011;4243;49.296;11.348;2022-07-01T11:05:51;116.87;;;3.00;;
8411;SDS011;4243;49.296;11.348;2022-07-01T11:08:22;117.10;;;2.63;;
8411;SDS011;4243;49.296;11.348;2022-07-01T11:10:58;117.27;;;2.60;;
8411;SDS011;4243;49.296;11.348;2022-07-01T11:13:30;117.27;;;2.60;;
8411;SDS011;4243;49.296;11.348;2022-07-01T11:15:59;117.27;;;2.53;;
8411;SDS011;4243;49.296;11.348;2022-07-01T11:18:27;116.60;;;2.60;;
8411;SDS011;4243;49.296;11.348;2022-07-01T11:21:05;117.60;;;2.50;;
8411;SDS011;4243;49.296;11.348;2022-07-01T11:23:35;117.23;;;2.67;;
8411;SDS011;4243;49.296;11.348;2022-07-01T11:26:18;117.40;;;2.57;;
8411;SDS011;4243;49.296;11.348;2022-07-01T11:28:51;118.00;;;2.50;;
8411;SDS011;4243;49.296;11.348;2022-07-01T11:31:26;117.77;;;2.47;;
8411;SDS011;4243;49.296;11.348;2022-07-01T11:34:00;117.60;;;2.60;;
8411;SDS011;4243;49.296;11.348;2022-07-01T11:36:28;117.70;;;2.53;;
8411;SDS011;4243;49.296;11.348;2022-07-01T11:39:16;117.53;;;2.50;;
8411;SDS011;4243;49.296;11.348;2022-07-01T11:42:08;117.60;;;2.60;;
8411;SDS011;4243;49.296;11.348;2022-07-01T11:44:43;117.80;;;2.50;;
8411;SDS011;4243;49.296;11.348;2022-07-01T11:47:12;119.37;;;2.70;;
8411;SDS011;4243;49.296;11.348;2022-07-01T11:49:51;118.17;;;2.50;;
8411;SDS011;4243;49.296;11.348;2022-07-01T11:52:20;118.37;;;2.60;;
8411;SDS011;4243;49.296;11.348;2022-07-01T11:55:02;118.17;;;2.70;;
8411;SDS011;4243;49.296;11.348;2022-07-01T11:57:50;117.30;;;2.53;;
8411;SDS011;4243;49.296;11.348;2022-07-01T12:00:19;117.60;;;2.70;;
8411;SDS011;4243;49.296;11.348;2022-07-01T12:02:49;117.50;;;2.70;;
8411;SDS011;4243;49.296;11.348;2022-07-01T12:05:18;117.70;;;2.70;;
8411;SDS011;4243;49.296;11.348;2022-07-01T12:07:47;117.43;;;2.77;;
8411;SDS011;4243;49.296;11.348;2022-07-01T12:10:15;118.17;;;2.80;;
8411;SDS011;4243;49.296;11.348;2022-07-01T12:12:43;117.70;;;2.80;;
8411;SDS011;4243;49.296;11.348;2022-07-01T12:15:12;117.50;;;2.93;;
8411;SDS011;4243;49.296;11.348;2022-07-01T12:17:41;117.90;;;2.70;;
8411;SDS011;4243;49.296;11.348;2022-07-01T12:20:09;117.30;;;2.70;;
8411;SDS011;4243;49.296;11.348;2022-07-01T12:22:38;117.77;;;2.70;;
8411;SDS011;4243;49.296;11.348;2022-07-01T12:25:11;116.93;;;2.67;;
8411;SDS011;4243;49.296;11.348;2022-07-01T12:27:42;117.73;;;2.70;;
8411;SDS011;4243;49.296;11.348;2022-07-01T12:30:11;117.60;;;2.87;;
8411;SDS011;4243;49.296;11.348;2022-07-01T12:32:50;117.97;;;2.60;;
8411;SDS011;4243;49.296;11.348;2022-07-01T12:35:22;117.93;;;2.70;;
8411;SDS011;4243;49.296;11.348;2022-07-01T12:38:00;117.23;;;2.67;;
8411;SDS011;4243;49.296;11.348;2022-07-01T12:40:32;117.87;;;2.67;;
8411;SDS011;4243;49.296;11.348;2022-07-01T12:43:00;118.00;;;2.90;;
8411;SDS011;4243;49.296;11.348;2022-07-01T12:45:33;117.97;;;3.47;;
8411;SDS011;4243;49.296;11.348;2022-07-01T12:48:07;117.43;;;2.80;;
8411;SDS011;4243;49.296;11.348;2022-07-01T12:50:35;118.43;;;2.70;;
8411;SDS011;4243;49.296;11.348;2022-07-01T12:53:07;117.40;;;2.60;;
8411;SDS011;4243;49.296;11.348;2022-07-01T12:55:48;116.93;;;2.80;;
8411;SDS011;4243;49.296;11.348;2022-07-01T12:58:24;117.87;;;2.70;;
8411;SDS011;4243;49.296;11.348;2022-07-01T13:00:55;117.50;;;2.80;;
8411;SDS011;4243;49.296;11.348;2022-07-01T13:03:26;117.40;;;2.70;;
8411;SDS011;4243;49.296;11.348;2022-07-01T13:05:56;117.50;;;2.60;;
8411;SDS011;4243;49.296;11.348;2022-07-01T13:08:24;117.43;;;2.60;;
8411;SDS011;4243;49.296;11.348;2022-07-01T13:10:52;118.00;;;2.73;;
8411;SDS011;4243;49.296;11.348;2022-07-01T13:13:20;117.60;;;2.60;;
8411;SDS011;4243;49.296;11.348;2022-07-01T13:15:49;117.77;;;2.67;;
8411;SDS011;4243;49.296;11.348;2022-07-01T13:18:17;117.90;;;2.60;;
8411;SDS011;4243;49.296;11.348;2022-07-01T13:20:45;117.87;;;2.63;;
8411;SDS011;4243;49.296;11.348;2022-07-01T13:23:13;117.60;;;2.70;;
8411;SDS011;4243;49.296;11.348;2022-07-01T13:25:42;118.07;;;2.80;;
8411;SDS011;4243;49.296;11.348;2022-07-01T13:28:10;117.97;;;2.70;;
8411;SDS011;4243;49.296;11.348;2022-07-01T13:30:38;117.73;;;2.77;;
8411;SDS011;4243;49.296;11.348;2022-07-01T13:33:07;117.67;;;2.73;;
8411;SDS011;4243;49.296;11.348;2022-07-01T13:35:34;118.10;;;2.97;;
8411;SDS011;4243;49.296;11.348;2022-07-01T13:38:03;118.20;;;2.90;;
8411;SDS011;4243;49.296;11.348;2022-07-01T13:40:31;117.90;;;2.70;;
8411;SDS011;4243;49.296;11.348;2022-07-01T13:42:59;117.37;;;2.80;;
8411;SDS011;4243;49.296;11.348;2022-07-01T13:45:28;117.73;;;2.80;;
8411;SDS011;4243;49.296;11.348;2022-07-01T13:47:56;118.10;;;2.80;;
8411;SDS011;4243;49.296;11.348;2022-07-01T13:50:24;118.10;;;2.90;;
8411;SDS011;4243;49.296;11.348;2022-07-01T13:52:53;118.10;;;3.10;;
8411;SDS011;4243;49.296;11.348;2022-07-01T13:55:21;118.20;;;3.00;;
8411;SDS011;4243;49.296;11.348;2022-07-01T13:57:49;118.20;;;2.80;;
8411;SDS011;4243;49.296;11.348;2022-07-01T14:00:17;118.10;;;2.77;;
8411;SDS011;4243;49.296;11.348;2022-07-01T14:02:46;118.10;;;2.90;;
8411;SDS011;4243;49.296;11.348;2022-07-01T14:05:14;118.10;;;2.97;;
8411;SDS011;4243;49.296;11.348;2022-07-01T14:07:42;118.17;;;2.90;;
8411;SDS011;4243;49.296;11.348;2022-07-01T14:10:12;118.30;;;2.80;;
8411;SDS011;4243;49.296;11.348;2022-07-01T14:12:40;118.10;;;2.80;;
8411;SDS011;4243;49.296;11.348;2022-07-01T14:15:09;118.50;;;2.90;;
8411;SDS011;4243;49.296;11.348;2022-07-01T14:17:37;118.67;;;2.80;;
8411;SDS011;4243;49.296;11.348;2022-07-01T14:20:05;117.93;;;2.97;;
8411;SDS011;4243;49.296;11.348;2022-07-01T14:22:33;118.20;;;2.80;;
8411;SDS011;4243;49.296;11.348;2022-07-01T14:25:02;118.10;;;2.97;;
8411;SDS011;4243;49.296;11.348;2022-07-01T14:27:31;117.97;;;2.80;;
8411;SDS011;4243;49.296;11.348;2022-07-01T14:29:59;117.27;;;2.60;;
8411;SDS011;4243;49.296;11.348;2022-07-01T14:32:27;116.47;;;2.70;;
8411;SDS011;4243;49.296;11.348;2022-07-01T14:34:56;116.97;;;2.80;;
8411;SDS011;4243;49.296;11.348;2022-07-01T14:37:24;117.20;;;2.70;;
8411;SDS011;4243;49.296;11.348;2022-07-01T14:39:52;116.50;;;2.60;;
8411;SDS011;4243;49.296;11.348;2022-07-01T14:42:24;116.43;;;2.60;;
8411;SDS011;4243;49.296;11.348;2022-07-01T14:44:54;117.27;;;2.90;;
8411;SDS011;4243;49.296;11.348;2022-07-01T14:47:23;117.27;;;2.60;;
8411;SDS011;4243;49.296;11.348;2022-07-01T14:49:51;117.13;;;2.70;;
8411;SDS011;4243;49.296;11.348;2022-07-01T14:52:21;116.20;;;2.60;;
8411;SDS011;4243;49.296;11.348;2022-07-01T14:54:51;117.37;;;2.60;;
8411;SDS011;4243;49.296;11.348;2022-07-01T14:57:19;116.80;;;2.60;;
8411;SDS011;4243;49.296;11.348;2022-07-01T14:59:51;116.40;;;2.50;;
8411;SDS011;4243;49.296;11.348;2022-07-01T15:02:20;116.77;;;2.40;;
8411;SDS011;4243;49.296;11.348;2022-07-01T15:04:50;116.30;;;2.43;;
8411;SDS011;4243;49.296;11.348;2022-07-01T15:07:18;116.17;;;2.60;;
8411;SDS011;4243;49.296;11.348;2022-07-01T15:09:46;115.83;;;2.50;;
8411;SDS011;4243;49.296;11.348;2022-07-01T15:12:14;116.57;;;2.87;;
8411;SDS011;4243;49.296;11.348;2022-07-01T15:14:43;115.40;;;2.40;;